sensor_id;sensor_type;location;lat;lon;timestamp;pressure;altitude;pressure_sealevel;temperature;humidity
22743;BME280;11538;48.884;8.696;2023-08-08T00:00:57;98886.66;;;14.66;100.00
22743;BME280;11538;48.884;8.696;2023-08-08T00:03:25;98890.03;;;14.63;100.00
22743;BME280;11538;48.884;8.696;2023-08-08T00:05:53;98891.28;;;14.66;100.00
22743;BME280;11538;48.884;8.696;2023-08-08T00:08:20;98895.97;;;14.65;100.00
22743;BME280;11538;48.884;8.696;2023-08-08T00:10:47;98891.16;;;14.62;100.00
22743;BME280;11538;48.884;8.696;2023-08-08T00:13:13;98889.38;;;14.57;100.00
22743;BME280;11538;48.884;8.696;2023-08-08T00:15:41;98886.00;;;14.52;100.00
22743;BME280;11538;48.884;8.696;2023-08-08T00:18:08;98893.72;;;14.50;100.00
22743;BME280;11538;48.884;8.696;2023-08-08T00:20:36;98885.69;;;14.44;100.00
22743;BME280;11538;48.884;8.696;2023-08-08T00:23:03;98892.63;;;14.42;100.00
22743;BME280;11538;48.884;8.696;2023-08-08T00:25:30;98883.44;;;14.46;100.00
22743;BME280;11538;48.884;8.696;2023-08-08T00:27:57;98881.06;;;14.45;100.00
22743;BME280;11538;48.884;8.696;2023-08-08T00:30:24;98883.31;;;14.43;100.00
22743;BME280;11538;48.884;8.696;2023-08-08T00:32:51;98883.59;;;14.41;100.00
22743;BME280;11538;48.884;8.696;2023-08-08T00:35:18;98883.00;;;14.36;100.00
22743;BME280;11538;48.884;8.696;2023-08-08T00:37:46;98873.50;;;14.33;100.00
22743;BME280;11538;48.884;8.696;2023-08-08T00:40:13;98869.66;;;14.34;100.00
22743;BME280;11538;48.884;8.696;2023-08-08T00:42:41;98873.50;;;14.33;100.00
22743;BME280;11538;48.884;8.696;2023-08-08T00:45:08;98874.78;;;14.27;100.00
22743;BME280;11538;48.884;8.696;2023-08-08T00:47:35;98877.03;;;14.25;100.00
22743;BME280;11538;48.884;8.696;2023-08-08T00:50:03;98887.16;;;14.24;100.00
22743;BME280;11538;48.884;8.696;2023-08-08T00:52:31;98878.47;;;14.31;100.00
22743;BME280;11538;48.884;8.696;2023-08-08T00:54:59;98879.59;;;14.30;100.00
22743;BME280;11538;48.884;8.696;2023-08-08T00:57:26;98873.19;;;14.26;100.00
22743;BME280;11538;48.884;8.696;2023-08-08T00:59:53;98867.72;;;14.26;100.00
22743;BME280;11538;48.884;8.696;2023-08-08T01:02:20;98868.03;;;14.33;100.00
22743;BME280;11538;48.884;8.696;2023-08-08T01:04:48;98868.88;;;14.33;100.00
22743;BME280;11538;48.884;8.696;2023-08-08T01:12:40;98860.66;;;14.42;100.00
22743;BME280;11538;48.884;8.696;2023-08-08T01:15:10;98852.97;;;14.36;100.00
22743;BME280;11538;48.884;8.696;2023-08-08T01:17:39;98861.47;;;14.34;100.00
22743;BME280;11538;48.884;8.696;2023-08-08T01:20:08;98866.28;;;14.37;100.00
22743;BME280;11538;48.884;8.696;2023-08-08T01:22:51;98857.47;;;14.31;100.00
22743;BME280;11538;48.884;8.696;2023-08-08T01:25:22;98852.50;;;14.33;100.00
22743;BME280;11538;48.884;8.696;2023-08-08T01:27:49;98859.38;;;14.31;100.00
22743;BME280;11538;48.884;8.696;2023-08-08T01:30:17;98858.25;;;14.32;100.00
22743;BME280;11538;48.884;8.696;2023-08-08T01:32:44;98848.16;;;14.32;100.00
22743;BME280;11538;48.884;8.696;2023-08-08T01:35:11;98853.28;;;14.34;100.00
22743;BME280;11538;48.884;8.696;2023-08-08T01:37:50;98852.16;;;14.35;100.00
22743;BME280;11538;48.884;8.696;2023-08-08T01:40:20;98855.06;;;14.30;100.00
22743;BME280;11538;48.884;8.696;2023-08-08T01:42:49;98856.34;;;14.24;100.00
22743;BME280;11538;48.884;8.696;2023-08-08T01:45:17;98849.44;;;14.17;100.00
22743;BME280;11538;48.884;8.696;2023-08-08T01:47:51;98849.78;;;14.07;100.00
22743;BME280;11538;48.884;8.696;2023-08-08T01:50:19;98856.84;;;14.08;100.00
22743;BME280;11538;48.884;8.696;2023-08-08T01:52:48;98855.53;;;14.14;100.00
22743;BME280;11538;48.884;8.696;2023-08-08T01:55:15;98849.44;;;14.17;100.00
22743;BME280;11538;48.884;8.696;2023-08-08T01:57:42;98845.59;;;14.18;100.00
22743;BME280;11538;48.884;8.696;2023-08-08T02:00:09;98846.41;;;14.19;100.00
22743;BME280;11538;48.884;8.696;2023-08-08T02:02:37;98845.59;;;14.18;100.00
22743;BME280;11538;48.884;8.696;2023-08-08T02:05:04;98845.78;;;14.22;100.00
22743;BME280;11538;48.884;8.696;2023-08-08T02:07:31;98847.38;;;14.23;100.00
22743;BME280;11538;48.884;8.696;2023-08-08T02:09:58;98844.00;;;14.17;100.00
22743;BME280;11538;48.884;8.696;2023-08-08T02:12:25;98842.25;;;14.13;100.00
22743;BME280;11538;48.884;8.696;2023-08-08T02:14:52;98850.91;;;14.06;100.00
22743;BME280;11538;48.884;8.696;2023-08-08T02:17:20;98846.56;;;14.05;100.00
22743;BME280;11538;48.884;8.696;2023-08-08T02:19:47;98849.00;;;14.07;100.00
22743;BME280;11538;48.884;8.696;2023-08-08T02:22:14;98836.63;;;14.09;100.00
22743;BME280;11538;48.884;8.696;2023-08-08T02:24:41;98834.88;;;14.04;100.00
22743;BME280;11538;48.884;8.696;2023-08-08T02:27:08;98831.34;;;13.95;100.00
22743;BME280;11538;48.884;8.696;2023-08-08T02:29:36;98840.47;;;13.91;100.00
22743;BME280;11538;48.884;8.696;2023-08-08T02:32:03;98835.31;;;13.89;100.00
22743;BME280;11538;48.884;8.696;2023-08-08T02:34:30;98836.63;;;13.92;100.00
22743;BME280;11538;48.884;8.696;2023-08-08T02:36:57;98834.19;;;13.90;100.00
22743;BME280;11538;48.884;8.696;2023-08-08T02:39:24;98827.47;;;13.87;100.00
22743;BME280;11538;48.884;8.696;2023-08-08T02:41:51;98828.59;;;13.86;100.00
22743;BME280;11538;48.884;8.696;2023-08-08T02:44:18;98832.59;;;13.89;100.00
22743;BME280;11538;48.884;8.696;2023-08-08T02:46:46;98836.16;;;13.89;100.00
22743;BME280;11538;48.884;8.696;2023-08-08T02:49:13;98830.06;;;13.93;100.00
22743;BME280;11538;48.884;8.696;2023-08-08T02:51:40;98836.94;;;13.90;100.00
22743;BME280;11538;48.884;8.696;2023-08-08T02:54:07;98833.25;;;13.86;100.00
22743;BME280;11538;48.884;8.696;2023-08-08T02:56:34;98835.97;;;13.77;100.00
22743;BME280;11538;48.884;8.696;2023-08-08T02:59:00;98832.13;;;13.69;100.00
22743;BME280;11538;48.884;8.696;2023-08-08T03:01:28;98837.09;;;13.76;100.00
22743;BME280;11538;48.884;8.696;2023-08-08T03:03:54;98832.78;;;13.75;100.00
22743;BME280;11538;48.884;8.696;2023-08-08T03:06:21;98823.00;;;13.74;100.00
22743;BME280;11538;48.884;8.696;2023-08-08T03:08:48;98828.44;;;13.83;100.00
22743;BME280;11538;48.884;8.696;2023-08-08T03:11:15;98834.72;;;13.92;100.00
22743;BME280;11538;48.884;8.696;2023-08-08T03:13:42;98831.66;;;13.94;100.00
22743;BME280;11538;48.884;8.696;2023-08-08T03:16:09;98835.03;;;13.99;100.00
22743;BME280;11538;48.884;8.696;2023-08-08T03:18:36;98833.09;;;14.00;100.00
22743;BME280;11538;48.884;8.696;2023-08-08T03:21:03;98827.63;;;14.00;100.00
22743;BME280;11538;48.884;8.696;2023-08-08T03:23:31;98824.28;;;14.03;100.00
22743;BME280;11538;48.884;8.696;2023-08-08T03:25:58;98825.72;;;14.09;100.00
22743;BME280;11538;48.884;8.696;2023-08-08T03:28:25;98824.59;;;14.10;100.00
22743;BME280;11538;48.884;8.696;2023-08-08T03:30:52;98826.66;;;14.13;100.00
22743;BME280;11538;48.884;8.696;2023-08-08T03:33:18;98825.25;;;14.16;100.00
22743;BME280;11538;48.884;8.696;2023-08-08T03:35:45;98827.31;;;14.19;100.00
22743;BME280;11538;48.884;8.696;2023-08-08T03:38:13;98827.78;;;14.12;100.00
22743;BME280;11538;48.884;8.696;2023-08-08T03:40:40;98835.97;;;14.12;100.00
22743;BME280;11538;48.884;8.696;2023-08-08T03:43:07;98831.16;;;14.09;100.00
22743;BME280;11538;48.884;8.696;2023-08-08T03:45:34;98830.84;;;14.02;100.00
22743;BME280;11538;48.884;8.696;2023-08-08T03:48:01;98827.47;;;14.05;100.00
22743;BME280;11538;48.884;8.696;2023-08-08T03:50:28;98823.00;;;14.00;100.00
22743;BME280;11538;48.884;8.696;2023-08-08T03:52:55;98827.97;;;13.98;100.00
22743;BME280;11538;48.884;8.696;2023-08-08T03:55:22;98830.34;;;13.91;100.00
22743;BME280;11538;48.884;8.696;2023-08-08T03:57:49;98837.28;;;13.97;100.00
22743;BME280;11538;48.884;8.696;2023-08-08T04:00:16;98836.63;;;14.00;100.00
22743;BME280;11538;48.884;8.696;2023-08-08T04:02:43;98836.16;;;13.98;100.00
22743;BME280;11538;48.884;8.696;2023-08-08T04:05:11;98835.50;;;13.93;100.00
22743;BME280;11538;48.884;8.696;2023-08-08T04:07:39;98839.50;;;13.86;100.00
22743;BME280;11538;48.884;8.696;2023-08-08T04:10:06;98840.47;;;13.91;100.00
22743;BME280;11538;48.884;8.696;2023-08-08T04:12:33;98844.66;;;13.97;100.00
22743;BME280;11538;48.884;8.696;2023-08-08T04:15:00;98848.50;;;14.04;100.00
22743;BME280;11538;48.884;8.696;2023-08-08T04:17:27;98849.47;;;14.00;100.00
22743;BME280;11538;48.884;8.696;2023-08-08T04:19:54;98857.97;;;13.98;100.00
22743;BME280;11538;48.884;8.696;2023-08-08T04:22:21;98853.66;;;13.97;100.00
22743;BME280;11538;48.884;8.696;2023-08-08T04:24:48;98854.09;;;13.91;100.00
22743;BME280;11538;48.884;8.696;2023-08-08T04:27:15;98840.00;;;13.88;100.00
22743;BME280;11538;48.884;8.696;2023-08-08T04:29:42;98838.38;;;13.87;100.00
22743;BME280;11538;48.884;8.696;2023-08-08T04:32:09;98839.03;;;13.84;100.00
22743;BME280;11538;48.884;8.696;2023-08-08T04:34:36;98837.72;;;13.82;100.00
22743;BME280;11538;48.884;8.696;2023-08-08T04:37:03;98841.59;;;13.89;100.00
22743;BME280;11538;48.884;8.696;2023-08-08T04:39:30;98836.94;;;13.99;100.00
22743;BME280;11538;48.884;8.696;2023-08-08T04:41:58;98840.63;;;14.03;100.00
22743;BME280;11538;48.884;8.696;2023-08-08T04:44:25;98834.06;;;14.04;100.00
22743;BME280;11538;48.884;8.696;2023-08-08T04:46:52;98841.59;;;14.07;100.00
22743;BME280;11538;48.884;8.696;2023-08-08T04:49:19;98849.94;;;14.11;100.00
22743;BME280;11538;48.884;8.696;2023-08-08T04:51:46;98850.09;;;14.14;100.00
22743;BME280;11538;48.884;8.696;2023-08-08T04:54:13;98846.41;;;14.19;100.00
22743;BME280;11538;48.884;8.696;2023-08-08T04:56:39;98845.59;;;14.18;100.00
22743;BME280;11538;48.884;8.696;2023-08-08T04:59:07;98859.09;;;14.15;100.00
22743;BME280;11538;48.884;8.696;2023-08-08T05:01:33;98868.72;;;14.12;100.00
22743;BME280;11538;48.884;8.696;2023-08-08T05:04:00;98865.00;;;14.08;100.00
22743;BME280;11538;48.884;8.696;2023-08-08T05:06:27;98860.84;;;14.02;100.00
22743;BME280;11538;48.884;8.696;2023-08-08T05:08:55;98870.50;;;13.99;100.00
22743;BME280;11538;48.884;8.696;2023-08-08T05:11:24;98867.09;;;13.94;100.00
22743;BME280;11538;48.884;8.696;2023-08-08T05:13:51;98869.53;;;13.95;100.00
22743;BME280;11538;48.884;8.696;2023-08-08T05:16:18;98863.72;;;13.97;100.00
22743;BME280;11538;48.884;8.696;2023-08-08T05:18:45;98866.47;;;13.97;100.00
22743;BME280;11538;48.884;8.696;2023-08-08T05:21:12;98858.75;;;13.99;100.00
22743;BME280;11538;48.884;8.696;2023-08-08T05:23:39;98855.41;;;14.02;100.00
22743;BME280;11538;48.884;8.696;2023-08-08T05:26:06;98853.81;;;14.10;100.00
22743;BME280;11538;48.884;8.696;2023-08-08T05:28:33;98856.66;;;14.13;100.00
22743;BME280;11538;48.884;8.696;2023-08-08T05:31:00;98845.59;;;14.18;100.00
22743;BME280;11538;48.884;8.696;2023-08-08T05:33:27;98849.75;;;14.25;100.00
22743;BME280;11538;48.884;8.696;2023-08-08T05:35:57;98844.13;;;14.30;100.00
22743;BME280;11538;48.884;8.696;2023-08-08T05:38:24;98845.09;;;14.34;100.00
22743;BME280;11538;48.884;8.696;2023-08-08T05:40:51;98841.06;;;14.40;100.00
22743;BME280;11538;48.884;8.696;2023-08-08T05:43:18;98852.78;;;14.50;100.00
22743;BME280;11538;48.884;8.696;2023-08-08T05:45:45;98842.50;;;14.55;100.00
22743;BME280;11538;48.884;8.696;2023-08-08T05:48:12;98845.22;;;14.64;100.00
22743;BME280;11538;48.884;8.696;2023-08-08T05:50:40;98843.13;;;14.70;100.00
22743;BME280;11538;48.884;8.696;2023-08-08T05:53:07;98839.56;;;14.78;100.00
22743;BME280;11538;48.884;8.696;2023-08-08T05:55:34;98843.06;;;14.96;100.00
22743;BME280;11538;48.884;8.696;2023-08-08T05:58:01;98848.28;;;15.10;99.07
22743;BME280;11538;48.884;8.696;2023-08-08T06:00:31;98853.84;;;15.23;96.45
22743;BME280;11538;48.884;8.696;2023-08-08T06:02:58;98848.81;;;15.33;95.89
22743;BME280;11538;48.884;8.696;2023-08-08T06:05:25;98846.03;;;15.42;94.92
22743;BME280;11538;48.884;8.696;2023-08-08T06:07:52;98854.06;;;15.47;94.50
22743;BME280;11538;48.884;8.696;2023-08-08T06:10:19;98853.03;;;15.52;94.13
22743;BME280;11538;48.884;8.696;2023-08-08T06:12:46;98854.81;;;15.57;93.94
22743;BME280;11538;48.884;8.696;2023-08-08T06:15:13;98852.19;;;15.60;92.91
22743;BME280;11538;48.884;8.696;2023-08-08T06:17:40;98847.34;;;15.66;92.29
22743;BME280;11538;48.884;8.696;2023-08-08T06:20:08;98845.53;;;15.70;92.46
22743;BME280;11538;48.884;8.696;2023-08-08T06:22:36;98842.25;;;15.77;91.10
22743;BME280;11538;48.884;8.696;2023-08-08T06:25:04;98839.78;;;15.84;91.47
22743;BME280;11538;48.884;8.696;2023-08-08T06:27:31;98843.50;;;15.88;91.70
22743;BME280;11538;48.884;8.696;2023-08-08T06:29:58;98835.13;;;15.93;88.87
22743;BME280;11538;48.884;8.696;2023-08-08T06:32:26;98840.84;;;16.01;89.22
22743;BME280;11538;48.884;8.696;2023-08-08T06:34:53;98834.34;;;16.05;88.36
22743;BME280;11538;48.884;8.696;2023-08-08T06:37:20;98836.88;;;16.11;86.84
22743;BME280;11538;48.884;8.696;2023-08-08T06:39:47;98836.34;;;16.17;85.65
22743;BME280;11538;48.884;8.696;2023-08-08T06:42:14;98843.34;;;16.27;84.36
22743;BME280;11538;48.884;8.696;2023-08-08T06:44:44;98843.25;;;16.36;83.28
22743;BME280;11538;48.884;8.696;2023-08-08T06:47:11;98837.13;;;16.39;82.26
22743;BME280;11538;48.884;8.696;2023-08-08T06:49:38;98847.03;;;16.44;82.09
22743;BME280;11538;48.884;8.696;2023-08-08T06:52:06;98849.91;;;16.47;83.07
22743;BME280;11538;48.884;8.696;2023-08-08T06:54:33;98848.22;;;16.55;82.57
22743;BME280;11538;48.884;8.696;2023-08-08T06:57:00;98849.94;;;16.60;78.83
22743;BME280;11538;48.884;8.696;2023-08-08T06:59:29;98850.53;;;16.65;77.82
22743;BME280;11538;48.884;8.696;2023-08-08T07:01:56;98847.91;;;16.69;77.33
22743;BME280;11538;48.884;8.696;2023-08-08T07:04:23;98859.78;;;16.73;78.10
22743;BME280;11538;48.884;8.696;2023-08-08T07:06:50;98847.00;;;16.77;79.21
22743;BME280;11538;48.884;8.696;2023-08-08T07:09:17;98854.22;;;16.82;78.47
22743;BME280;11538;48.884;8.696;2023-08-08T07:11:45;98850.44;;;16.87;78.77
22743;BME280;11538;48.884;8.696;2023-08-08T07:14:12;98852.19;;;16.91;78.77
22743;BME280;11538;48.884;8.696;2023-08-08T07:16:39;98842.94;;;16.96;78.14
22743;BME280;11538;48.884;8.696;2023-08-08T07:19:06;98854.16;;;17.03;75.70
22743;BME280;11538;48.884;8.696;2023-08-08T07:21:33;98846.97;;;17.11;76.32
22743;BME280;11538;48.884;8.696;2023-08-08T07:24:00;98842.88;;;17.17;74.33
22743;BME280;11538;48.884;8.696;2023-08-08T07:26:29;98842.84;;;17.30;74.99
22743;BME280;11538;48.884;8.696;2023-08-08T07:28:56;98840.09;;;17.42;74.77
22743;BME280;11538;48.884;8.696;2023-08-08T07:31:24;98835.41;;;17.55;74.28
22743;BME280;11538;48.884;8.696;2023-08-08T07:33:51;98834.81;;;17.62;71.03
22743;BME280;11538;48.884;8.696;2023-08-08T07:36:18;98842.34;;;17.65;70.52
22743;BME280;11538;48.884;8.696;2023-08-08T07:38:45;98841.91;;;17.63;69.44
22743;BME280;11538;48.884;8.696;2023-08-08T07:41:12;98836.09;;;17.64;70.76
22743;BME280;11538;48.884;8.696;2023-08-08T07:43:39;98841.91;;;17.63;70.02
22743;BME280;11538;48.884;8.696;2023-08-08T07:46:06;98827.03;;;17.64;69.55
22743;BME280;11538;48.884;8.696;2023-08-08T07:48:33;98830.25;;;17.66;69.36
22743;BME280;11538;48.884;8.696;2023-08-08T07:51:00;98830.00;;;17.71;72.36
22743;BME280;11538;48.884;8.696;2023-08-08T07:53:27;98828.84;;;17.72;69.77
22743;BME280;11538;48.884;8.696;2023-08-08T07:55:54;98819.81;;;17.84;71.26
22743;BME280;11538;48.884;8.696;2023-08-08T07:58:21;98824.56;;;18.00;71.14
22743;BME280;11538;48.884;8.696;2023-08-08T08:00:53;98831.81;;;18.20;69.94
22743;BME280;11538;48.884;8.696;2023-08-08T08:03:20;98833.22;;;18.42;67.74
22743;BME280;11538;48.884;8.696;2023-08-08T08:05:48;98828.91;;;18.58;70.33
22743;BME280;11538;48.884;8.696;2023-08-08T08:08:15;98833.88;;;18.68;66.70
22743;BME280;11538;48.884;8.696;2023-08-08T08:10:42;98830.78;;;18.85;65.81
22743;BME280;11538;48.884;8.696;2023-08-08T08:13:09;98838.22;;;18.85;66.67
22743;BME280;11538;48.884;8.696;2023-08-08T08:15:38;98833.28;;;18.91;65.05
22743;BME280;11538;48.884;8.696;2023-08-08T08:18:05;98837.16;;;18.90;67.39
22743;BME280;11538;48.884;8.696;2023-08-08T08:20:35;98827.94;;;18.82;66.01
22743;BME280;11538;48.884;8.696;2023-08-08T08:23:02;98832.19;;;18.95;67.23
22743;BME280;11538;48.884;8.696;2023-08-08T08:25:29;98832.56;;;19.10;63.13
22743;BME280;11538;48.884;8.696;2023-08-08T08:27:56;98826.00;;;19.31;65.14
22743;BME280;11538;48.884;8.696;2023-08-08T08:30:23;98824.88;;;19.51;64.90
22743;BME280;11538;48.884;8.696;2023-08-08T08:32:52;98833.53;;;19.69;64.83
22743;BME280;11538;48.884;8.696;2023-08-08T08:35:19;98830.56;;;19.78;65.28
22743;BME280;11538;48.884;8.696;2023-08-08T08:37:47;98821.88;;;19.92;61.28
22743;BME280;11538;48.884;8.696;2023-08-08T08:40:14;98823.38;;;20.09;62.64
22743;BME280;11538;48.884;8.696;2023-08-08T08:42:43;98814.00;;;20.34;64.28
22743;BME280;11538;48.884;8.696;2023-08-08T08:45:13;98823.25;;;20.45;59.97
22743;BME280;11538;48.884;8.696;2023-08-08T08:47:41;98816.38;;;20.55;59.97
22743;BME280;11538;48.884;8.696;2023-08-08T08:50:11;98825.97;;;20.65;58.83
22743;BME280;11538;48.884;8.696;2023-08-08T08:52:40;98827.25;;;20.71;59.80
22743;BME280;11538;48.884;8.696;2023-08-08T08:55:08;98826.03;;;20.68;56.51
22743;BME280;11538;48.884;8.696;2023-08-08T08:57:36;98829.31;;;20.97;55.34
22743;BME280;11538;48.884;8.696;2023-08-08T09:00:05;98833.88;;;21.13;55.67
22743;BME280;11538;48.884;8.696;2023-08-08T09:02:33;98819.34;;;21.16;54.80
22743;BME280;11538;48.884;8.696;2023-08-08T09:05:03;98825.59;;;21.36;56.33
22743;BME280;11538;48.884;8.696;2023-08-08T09:07:32;98819.84;;;21.48;56.46
22743;BME280;11538;48.884;8.696;2023-08-08T09:09:59;98810.63;;;21.64;61.65
22743;BME280;11538;48.884;8.696;2023-08-08T09:12:27;98822.41;;;21.34;52.97
22743;BME280;11538;48.884;8.696;2023-08-08T09:14:55;98820.81;;;21.33;55.17
22743;BME280;11538;48.884;8.696;2023-08-08T09:17:27;98811.06;;;21.43;52.23
22743;BME280;11538;48.884;8.696;2023-08-08T09:20:13;98802.84;;;21.73;55.51
22743;BME280;11538;48.884;8.696;2023-08-08T09:22:40;98822.78;;;21.90;51.26
22743;BME280;11538;48.884;8.696;2023-08-08T09:25:08;98815.00;;;21.99;51.51
22743;BME280;11538;48.884;8.696;2023-08-08T09:27:35;98813.25;;;21.84;51.70
22743;BME280;11538;48.884;8.696;2023-08-08T09:30:04;98812.81;;;21.82;52.34
22743;BME280;11538;48.884;8.696;2023-08-08T09:32:31;98806.72;;;21.99;50.99
22743;BME280;11538;48.884;8.696;2023-08-08T09:34:59;98802.16;;;22.14;50.48
22743;BME280;11538;48.884;8.696;2023-08-08T09:37:28;98799.56;;;22.32;52.03
22743;BME280;11538;48.884;8.696;2023-08-08T09:40:00;98800.56;;;22.47;49.61
22743;BME280;11538;48.884;8.696;2023-08-08T09:42:28;98786.03;;;22.54;52.05
22743;BME280;11538;48.884;8.696;2023-08-08T09:44:57;98787.22;;;22.57;50.34
22743;BME280;11538;48.884;8.696;2023-08-08T09:47:25;98795.91;;;22.55;51.32
22743;BME280;11538;48.884;8.696;2023-08-08T09:50:03;98799.09;;;22.57;47.90
22743;BME280;11538;48.884;8.696;2023-08-08T09:52:35;98799.63;;;22.74;48.47
22743;BME280;11538;48.884;8.696;2023-08-08T09:55:06;98793.84;;;22.97;47.93
22743;BME280;11538;48.884;8.696;2023-08-08T09:57:33;98802.50;;;22.88;46.68
22743;BME280;11538;48.884;8.696;2023-08-08T10:00:02;98793.72;;;22.79;46.17
22743;BME280;11538;48.884;8.696;2023-08-08T10:02:31;98792.09;;;22.74;47.83
22743;BME280;11538;48.884;8.696;2023-08-08T10:04:59;98791.88;;;22.94;48.08
22743;BME280;11538;48.884;8.696;2023-08-08T10:07:28;98791.69;;;23.21;46.50
22743;BME280;11538;48.884;8.696;2023-08-08T10:09:54;98795.88;;;23.56;50.14
22743;BME280;11538;48.884;8.696;2023-08-08T10:12:25;98801.84;;;23.69;49.06
22743;BME280;11538;48.884;8.696;2023-08-08T10:14:52;98794.19;;;23.41;45.33
22743;BME280;11538;48.884;8.696;2023-08-08T10:17:19;98790.28;;;23.52;48.81
22743;BME280;11538;48.884;8.696;2023-08-08T10:19:56;98791.63;;;23.77;46.44
22743;BME280;11538;48.884;8.696;2023-08-08T10:22:24;98796.09;;;24.03;45.48
22743;BME280;11538;48.884;8.696;2023-08-08T10:24:53;98791.78;;;24.09;49.55
22743;BME280;11538;48.884;8.696;2023-08-08T10:27:33;98787.78;;;24.03;51.66
22743;BME280;11538;48.884;8.696;2023-08-08T10:30:10;98789.81;;;24.21;46.34
22743;BME280;11538;48.884;8.696;2023-08-08T10:32:45;98789.47;;;24.41;47.35
22743;BME280;11538;48.884;8.696;2023-08-08T10:35:15;98793.03;;;24.45;45.23
22743;BME280;11538;48.884;8.696;2023-08-08T10:37:53;98793.44;;;24.68;45.97
22743;BME280;11538;48.884;8.696;2023-08-08T10:40:21;98787.91;;;24.90;43.29
22743;BME280;11538;48.884;8.696;2023-08-08T10:42:48;98785.94;;;25.05;43.67
22743;BME280;11538;48.884;8.696;2023-08-08T10:45:16;98786.72;;;25.09;44.87
22743;BME280;11538;48.884;8.696;2023-08-08T10:47:44;98787.50;;;25.21;47.79
22743;BME280;11538;48.884;8.696;2023-08-08T10:50:22;98792.28;;;25.20;43.20
22743;BME280;11538;48.884;8.696;2023-08-08T11:00:33;98776.03;;;25.04;42.54
22743;BME280;11538;48.884;8.696;2023-08-08T11:03:02;98779.56;;;25.48;40.35
22743;BME280;11538;48.884;8.696;2023-08-08T11:05:37;98785.88;;;25.52;40.00
22743;BME280;11538;48.884;8.696;2023-08-08T11:08:06;98777.47;;;25.74;42.58
22743;BME280;11538;48.884;8.696;2023-08-08T11:10:39;98766.84;;;25.40;40.85
22743;BME280;11538;48.884;8.696;2023-08-08T11:13:07;98791.44;;;25.52;42.56
22743;BME280;11538;48.884;8.696;2023-08-08T11:15:36;98774.38;;;25.50;40.05
22743;BME280;11538;48.884;8.696;2023-08-08T11:18:06;98777.03;;;25.83;40.06
22743;BME280;11538;48.884;8.696;2023-08-08T11:20:35;98773.25;;;26.26;39.42
22743;BME280;11538;48.884;8.696;2023-08-08T11:23:03;98778.16;;;26.67;38.78
22743;BME280;11538;48.884;8.696;2023-08-08T11:25:42;98782.00;;;26.84;37.96
22743;BME280;11538;48.884;8.696;2023-08-08T11:28:11;98786.06;;;26.73;38.14
22743;BME280;11538;48.884;8.696;2023-08-08T11:30:42;98782.53;;;26.65;37.83
22743;BME280;11538;48.884;8.696;2023-08-08T11:33:12;98784.66;;;26.46;38.08
22743;BME280;11538;48.884;8.696;2023-08-08T11:35:45;98789.00;;;26.51;36.38
22743;BME280;11538;48.884;8.696;2023-08-08T11:38:17;98787.31;;;26.64;36.33
22743;BME280;11538;48.884;8.696;2023-08-08T11:40:44;98781.28;;;27.61;35.53
22743;BME280;11538;48.884;8.696;2023-08-08T11:43:12;98769.06;;;28.13;33.53
22743;BME280;11538;48.884;8.696;2023-08-08T11:45:42;98771.41;;;28.45;33.32
22743;BME280;11538;48.884;8.696;2023-08-08T11:48:09;98778.09;;;28.79;32.50
22743;BME280;11538;48.884;8.696;2023-08-08T11:50:37;98761.91;;;29.14;33.11
22743;BME280;11538;48.884;8.696;2023-08-08T11:53:06;98771.72;;;28.79;32.49
22743;BME280;11538;48.884;8.696;2023-08-08T11:55:33;98774.09;;;28.53;32.90
22743;BME280;11538;48.884;8.696;2023-08-08T11:58:00;98779.22;;;28.82;31.79
22743;BME280;11538;48.884;8.696;2023-08-08T12:00:30;98748.00;;;29.11;31.02
22743;BME280;11538;48.884;8.696;2023-08-08T12:03:00;98751.31;;;28.82;31.65
22743;BME280;11538;48.884;8.696;2023-08-08T12:05:29;98746.91;;;28.57;32.29
22743;BME280;11538;48.884;8.696;2023-08-08T12:07:58;98753.22;;;28.61;32.89
22743;BME280;11538;48.884;8.696;2023-08-08T12:10:25;98745.53;;;28.17;34.73
22743;BME280;11538;48.884;8.696;2023-08-08T12:12:57;98751.00;;;27.63;33.95
22743;BME280;11538;48.884;8.696;2023-08-08T12:15:32;98744.81;;;27.44;34.53
22743;BME280;11538;48.884;8.696;2023-08-08T12:18:03;98750.94;;;26.93;35.15
22743;BME280;11538;48.884;8.696;2023-08-08T12:20:31;98751.63;;;27.05;35.52
22743;BME280;11538;48.884;8.696;2023-08-08T12:22:59;98761.03;;;27.14;35.54
22743;BME280;11538;48.884;8.696;2023-08-08T12:25:26;98752.69;;;27.14;35.41
22743;BME280;11538;48.884;8.696;2023-08-08T12:27:55;98748.22;;;27.24;35.19
22743;BME280;11538;48.884;8.696;2023-08-08T12:30:22;98739.84;;;28.25;34.23
22743;BME280;11538;48.884;8.696;2023-08-08T12:32:49;98745.47;;;28.72;32.91
22743;BME280;11538;48.884;8.696;2023-08-08T12:35:16;98730.53;;;29.07;32.63
22743;BME280;11538;48.884;8.696;2023-08-08T12:37:44;98741.63;;;29.54;31.82
22743;BME280;11538;48.884;8.696;2023-08-08T12:40:11;98737.63;;;29.55;30.54
22743;BME280;11538;48.884;8.696;2023-08-08T12:42:39;98739.25;;;29.73;30.37
22743;BME280;11538;48.884;8.696;2023-08-08T12:45:07;98729.91;;;30.00;30.01
22743;BME280;11538;48.884;8.696;2023-08-08T12:47:34;98736.22;;;30.20;29.00
22743;BME280;11538;48.884;8.696;2023-08-08T12:50:07;98747.13;;;30.68;28.38
22743;BME280;11538;48.884;8.696;2023-08-08T12:52:38;98752.56;;;30.59;28.24
22743;BME280;11538;48.884;8.696;2023-08-08T12:55:06;98735.91;;;29.98;29.37
22743;BME280;11538;48.884;8.696;2023-08-08T12:57:34;98732.03;;;30.29;29.33
22743;BME280;11538;48.884;8.696;2023-08-08T13:00:01;98726.03;;;30.80;28.81
22743;BME280;11538;48.884;8.696;2023-08-08T13:02:28;98734.66;;;31.02;28.75
22743;BME280;11538;48.884;8.696;2023-08-08T13:04:55;98717.91;;;30.53;29.55
22743;BME280;11538;48.884;8.696;2023-08-08T13:07:22;98725.09;;;28.52;32.64
22743;BME280;11538;48.884;8.696;2023-08-08T13:09:49;98721.94;;;29.41;31.64
22743;BME280;11538;48.884;8.696;2023-08-08T13:12:16;98727.59;;;30.31;31.02